Time;durP1;ratioP1;P1;durP2;ratioP2;P2;SDS_P1;SDS_P2;PMS_P1;PMS_P2;Temp;Humidity;BMP_temperature;BMP_pressure;BME280_temperature;BME280_humidity;BME280_pressure;Samples;Min_cycle;Max_cycle;Signal;HPM_P1;HPM_P2
2021/07/10 00:01:12;;;;;;;3.48;3.08;;;;;;;22.29;65.54;96842.38;127782;1093;32505;-94
2021/07/10 00:03:45;;;;;;;3.63;2.90;;;;;;;22.16;65.13;96848.98;127752;1093;57238;-91
2021/07/10 00:06:16;;;;;;;4.40;2.98;;;;;;;22.18;65.65;96849.42;127818;1093;36999;-91
2021/07/10 00:08:48;;;;;;;4.60;2.90;;;;;;;22.06;65.44;96855.67;127842;1092;31860;-91
2021/07/10 00:11:20;;;;;;;5.03;3.23;;;;;;;21.83;65.77;96858.14;127818;1093;30633;-92
2021/07/10 00:13:51;;;;;;;4.50;3.13;;;;;;;21.55;66.19;96860.06;127869;1093;28363;-91
2021/07/10 00:16:23;;;;;;;5.60;3.83;;;;;;;21.39;67.11;96862.67;127865;1093;29252;-91
2021/07/10 00:18:54;;;;;;;6.10;4.90;;;;;;;21.25;67.82;96876.52;127872;1093;31590;-90
2021/07/10 00:21:26;;;;;;;7.05;4.33;;;;;;;21.18;68.53;96864.73;127824;1093;35736;-90
2021/07/10 00:23:57;;;;;;;4.85;3.40;;;;;;;21.34;69.25;96871.80;127835;1093;31944;-94
2021/07/10 00:26:29;;;;;;;5.28;3.68;;;;;;;21.51;69.32;96872.64;127856;1093;35386;-92
2021/07/10 00:29:00;;;;;;;7.50;4.15;;;;;;;21.46;69.00;96875.59;127815;1093;33203;-92
2021/07/10 00:31:32;;;;;;;6.00;4.20;;;;;;;21.58;69.14;96891.74;127863;1092;32712;-93
2021/07/10 00:34:04;;;;;;;5.68;4.25;;;;;;;21.61;68.96;96885.66;127853;1092;28497;-92
2021/07/10 00:36:35;;;;;;;5.58;4.50;;;;;;;21.59;69.16;96893.31;127897;1093;34465;-93
2021/07/10 00:39:07;;;;;;;6.08;4.33;;;;;;;21.69;69.25;96898.23;127850;1093;36230;-93
2021/07/10 00:41:39;;;;;;;6.13;4.53;;;;;;;21.85;69.48;96890.97;127930;1093;31438;-93
2021/07/10 00:44:10;;;;;;;5.75;4.33;;;;;;;22.00;69.12;96889.44;127860;1093;31977;-92
2021/07/10 00:46:42;;;;;;;5.23;3.78;;;;;;;22.11;69.14;96895.94;126338;1093;1761269;-94
2021/07/10 00:49:13;;;;;;;6.40;4.90;;;;;;;22.22;68.89;96890.80;127859;1093;29318;-93
2021/07/10 00:51:45;;;;;;;6.98;4.20;;;;;;;22.31;69.08;96894.13;127811;1093;36215;-90
2021/07/10 00:54:16;;;;;;;6.43;3.98;;;;;;;22.32;68.79;96905.72;127804;1093;33883;-92
2021/07/10 00:56:49;;;;;;;6.27;3.80;;;;;;;22.22;68.49;96907.78;127840;1093;29328;-92
2021/07/10 00:59:20;;;;;;;6.10;4.20;;;;;;;21.79;68.19;96908.52;127830;1093;36403;-93
2021/07/10 01:01:52;;;;;;;8.48;4.43;;;;;;;21.38;68.73;96901.56;127811;1092;28314;-93
2021/07/10 01:04:24;;;;;;;8.05;3.83;;;;;;;21.16;69.35;96908.21;127841;1093;30652;-92
2021/07/10 01:06:56;;;;;;;5.15;3.60;;;;;;;21.11;70.15;96913.03;127826;1093;28050;-92
2021/07/10 01:09:27;;;;;;;5.33;3.08;;;;;;;21.26;70.39;96913.18;127783;1093;57902;-91
2021/07/10 01:11:59;;;;;;;5.85;3.13;;;;;;;21.46;70.20;96914.14;127787;1093;36222;-91
2021/07/10 01:14:32;;;;;;;4.90;3.30;;;;;;;21.61;70.24;96913.42;127779;1093;34389;-92
2021/07/10 01:17:04;;;;;;;6.35;3.60;;;;;;;21.74;69.86;96922.27;127764;1093;30483;-90
2021/07/10 01:19:35;;;;;;;6.48;3.78;;;;;;;21.84;69.77;96924.48;127824;1092;28098;-93
2021/07/10 01:22:10;;;;;;;4.03;3.13;;;;;;;21.90;69.43;96933.11;127874;1093;31105;-92
2021/07/10 01:24:42;;;;;;;4.73;3.50;;;;;;;21.95;69.37;96946.36;127871;1093;27913;-90
2021/07/10 01:27:13;;;;;;;5.60;3.33;;;;;;;22.01;69.18;96945.00;127809;1093;63580;-91
2021/07/10 01:29:46;;;;;;;4.98;3.80;;;;;;;22.03;69.49;96948.14;127822;1093;31530;-91
2021/07/10 01:32:19;;;;;;;6.53;3.95;;;;;;;22.06;69.20;96946.69;127836;1093;27630;-92
2021/07/10 01:34:51;;;;;;;4.03;3.50;;;;;;;22.00;68.87;96942.65;127829;1093;30034;-92
2021/07/10 01:37:22;;;;;;;6.50;3.90;;;;;;;22.01;69.04;96945.00;127844;1091;32256;-91
2021/07/10 01:39:53;;;;;;;5.48;4.00;;;;;;;22.00;69.09;96948.83;127834;1093;29570;-92
2021/07/10 01:42:25;;;;;;;7.00;3.80;;;;;;;21.99;69.20;96939.16;127860;1093;29438;-92
2021/07/10 01:44:56;;;;;;;4.60;3.65;;;;;;;22.04;69.17;96935.42;127866;1093;30726;-92
2021/07/10 01:47:28;;;;;;;6.20;3.50;;;;;;;22.01;68.96;96934.20;127853;1093;28051;-92
2021/07/10 01:49:59;;;;;;;5.08;3.65;;;;;;;22.00;69.11;96931.84;127829;1092;30230;-91
2021/07/10 01:52:31;;;;;;;4.90;3.68;;;;;;;21.93;68.86;96922.41;127834;1093;27800;-91
2021/07/10 01:55:04;;;;;;;6.60;3.50;;;;;;;21.91;68.76;96919.27;127776;1093;31846;-92
2021/07/10 01:57:35;;;;;;;5.25;3.50;;;;;;;21.87;69.07;96910.30;127806;1093;30397;-94
2021/07/10 02:00:10;;;;;;;6.38;3.65;;;;;;;21.81;69.29;96913.57;127800;1093;29726;-93
2021/07/10 02:02:42;;;;;;;6.68;3.28;;;;;;;21.79;69.10;96894.24;127878;1092;33525;-92
2021/07/10 02:05:18;;;;;;;6.05;3.38;;;;;;;21.74;69.27;96889.88;127797;1093;32605;-92
2021/07/10 02:07:50;;;;;;;5.80;3.43;;;;;;;21.58;69.25;96897.92;127826;1093;34040;-94
2021/07/10 02:10:25;;;;;;;7.50;3.78;;;;;;;21.45;69.02;96917.19;127837;1092;28891;-92
2021/07/10 02:12:58;;;;;;;5.25;3.75;;;;;;;21.03;69.28;96930.91;127833;1092;28949;-93
2021/07/10 02:15:29;;;;;;;4.78;3.33;;;;;;;20.55;70.01;96916.31;127892;1093;36035;-91
2021/07/10 02:18:01;;;;;;;5.33;2.80;;;;;;;20.26;70.52;96911.03;127856;1093;32622;-91
2021/07/10 02:20:32;;;;;;;4.20;2.70;;;;;;;20.11;71.31;96921.31;127873;1093;32737;-91
2021/07/10 02:23:05;;;;;;;3.78;2.45;;;;;;;19.94;71.49;96926.87;127771;1093;31243;-91
2021/07/10 02:25:36;;;;;;;4.10;2.35;;;;;;;19.94;72.29;96929.56;127875;1093;27462;-90
2021/07/10 02:28:08;;;;;;;3.35;2.20;;;;;;;20.08;71.41;96942.73;127918;1093;33123;-92
2021/07/10 02:30:39;;;;;;;4.03;2.00;;;;;;;20.09;71.30;96944.30;127922;1093;27573;-91
2021/07/10 02:33:11;;;;;;;2.80;1.80;;;;;;;20.16;71.14;96944.56;127883;1093;36107;-90
2021/07/10 02:35:42;;;;;;;2.80;1.70;;;;;;;20.22;70.69;96940.53;127818;1093;35874;-92
2021/07/10 02:38:14;;;;;;;2.70;1.70;;;;;;;20.10;70.00;96937.80;127834;1093;40825;-92
2021/07/10 02:40:46;;;;;;;3.18;1.68;;;;;;;19.97;70.24;96934.27;127812;1093;35282;-92
2021/07/10 02:43:17;;;;;;;3.37;1.60;;;;;;;19.98;70.56;96930.46;127835;1093;29857;-93
2021/07/10 02:45:49;;;;;;;2.60;1.88;;;;;;;20.09;70.59;96939.70;127813;1093;30819;-92
2021/07/10 02:48:20;;;;;;;2.13;1.78;;;;;;;20.24;70.84;96935.59;127852;1091;35691;-92
2021/07/10 02:50:52;;;;;;;7.05;1.98;;;;;;;20.39;70.57;96926.88;127805;1093;30178;-96
2021/07/10 02:53:23;;;;;;;3.23;1.88;;;;;;;20.47;70.56;96916.39;127802;1093;29240;-92
2021/07/10 02:55:55;;;;;;;2.60;2.10;;;;;;;20.52;70.35;96908.88;127920;1093;35488;-93
2021/07/10 02:58:26;;;;;;;3.13;2.43;;;;;;;20.49;70.09;96895.30;127944;1093;43129;-93
2021/07/10 03:00:58;;;;;;;2.58;1.80;;;;;;;20.48;69.95;96888.34;128006;1093;37493;-94
2021/07/10 03:03:29;;;;;;;3.18;1.83;;;;;;;20.47;70.02;96884.86;127916;1092;40725;-94
2021/07/10 03:06:01;;;;;;;3.18;2.08;;;;;;;20.46;69.73;96877.91;127912;1093;50287;-93
2021/07/10 03:08:33;;;;;;;2.50;1.95;;;;;;;20.47;69.64;96889.46;127960;1093;46424;-93
2021/07/10 03:11:07;;;;;;;1.90;1.20;;;;;;;20.48;69.32;96886.43;127881;1093;49410;-94
2021/07/10 03:13:40;;;;;;;2.55;1.68;;;;;;;20.51;69.36;96891.14;127434;1093;123882;-94
2021/07/10 03:16:12;;;;;;;4.83;1.73;;;;;;;20.53;69.17;96883.50;127683;1093;99533;-94
2021/07/10 03:18:43;;;;;;;3.73;1.48;;;;;;;20.48;68.89;96870.27;127984;1093;40035;-94
2021/07/10 03:21:15;;;;;;;2.75;1.65;;;;;;;20.25;68.44;96880.63;127971;1093;45867;-94
2021/07/10 03:23:47;;;;;;;2.53;1.58;;;;;;;20.25;68.94;96887.92;128044;1092;51000;-94
2021/07/10 03:26:18;;;;;;;2.10;1.55;;;;;;;20.14;68.01;96882.20;127982;1093;46051;-94
2021/07/10 03:28:52;;;;;;;1.55;1.23;;;;;;;19.81;67.31;96879.50;128021;1093;53772;-93
2021/07/10 03:31:23;;;;;;;3.13;1.15;;;;;;;19.60;67.63;96876.86;127933;1093;84040;-94
2021/07/10 03:33:55;;;;;;;4.03;1.48;;;;;;;19.45;68.19;96883.59;128100;1092;42472;-94
2021/07/10 03:36:27;;;;;;;4.78;1.40;;;;;;;19.48;68.77;96888.31;128069;1092;43940;-94
2021/07/10 03:38:59;;;;;;;1.68;0.93;;;;;;;19.41;68.60;96881.87;128071;1093;41596;-93
2021/07/10 03:41:31;;;;;;;1.50;1.20;;;;;;;19.20;68.71;96881.88;128049;1092;40496;-93
2021/07/10 03:44:02;;;;;;;1.93;1.28;;;;;;;19.09;69.03;96891.43;128071;1093;40419;-94
2021/07/10 03:46:34;;;;;;;2.17;1.73;;;;;;;19.01;69.65;96890.38;128091;1093;40796;-94
2021/07/10 03:49:05;;;;;;;2.53;2.00;;;;;;;18.93;70.25;96902.74;128042;1091;44203;-94
2021/07/10 03:51:37;;;;;;;2.77;1.30;;;;;;;18.83;70.41;96899.63;128082;1092;45084;-94
2021/07/10 03:54:09;;;;;;;2.38;1.55;;;;;;;18.82;70.57;96920.34;128109;1093;51777;-94
2021/07/10 03:56:41;;;;;;;1.80;1.35;;;;;;;18.87;70.86;96912.11;128129;1093;49051;-93
2021/07/10 03:59:12;;;;;;;2.48;1.23;;;;;;;18.88;70.53;96916.38;128107;1093;44759;-93
2021/07/10 04:01:45;;;;;;;1.83;1.33;;;;;;;18.86;70.17;96909.72;128125;1092;65539;-93
2021/07/10 04:04:17;;;;;;;1.63;1.03;;;;;;;18.87;69.40;96922.07;128091;1093;34949;-93
2021/07/10 04:06:48;;;;;;;1.03;0.90;;;;;;;18.90;69.60;96926.79;128062;1093;43364;-94
2021/07/10 04:09:20;;;;;;;0.83;0.78;;;;;;;18.97;69.79;96932.43;128030;1093;46703;-94
2021/07/10 04:11:52;;;;;;;1.53;0.90;;;;;;;19.09;69.70;96937.90;127850;1092;48737;-94
2021/07/10 04:14:23;;;;;;;2.18;1.05;;;;;;;19.10;69.37;96933.31;127942;1093;54168;-93
2021/07/10 04:16:55;;;;;;;0.98;0.70;;;;;;;19.03;69.28;96930.36;128010;1093;72334;-94
2021/07/10 04:19:26;;;;;;;2.10;0.90;;;;;;;18.99;69.05;96928.30;128073;1093;39888;-95
2021/07/10 04:21:58;;;;;;;1.00;0.80;;;;;;;19.00;69.06;96937.15;128067;1092;44167;-94
2021/07/10 04:24:29;;;;;;;2.20;0.70;;;;;;;19.05;68.77;96942.36;127958;1093;41791;-94
2021/07/10 04:27:01;;;;;;;0.78;0.70;;;;;;;19.01;68.98;96940.65;127959;1092;41674;-93
2021/07/10 04:29:33;;;;;;;2.65;0.83;;;;;;;18.94;68.92;96943.83;128009;1093;39387;-94
2021/07/10 04:32:05;;;;;;;2.05;0.80;;;;;;;18.83;68.96;96948.77;128037;1093;42505;-94
2021/07/10 04:34:36;;;;;;;1.00;0.70;;;;;;;18.71;68.82;96950.55;127988;1092;59903;-94
2021/07/10 04:37:08;;;;;;;0.75;0.63;;;;;;;18.66;69.39;96948.84;128157;1092;42083;-94
2021/07/10 04:39:42;;;;;;;0.70;0.70;;;;;;;18.69;69.65;96948.20;128115;1093;39801;-94
2021/07/10 04:42:13;;;;;;;1.08;0.70;;;;;;;18.73;69.48;96954.52;127952;1093;39151;-93
2021/07/10 04:44:45;;;;;;;3.23;0.70;;;;;;;18.73;69.40;96951.84;128076;1093;45567;-94
2021/07/10 04:47:17;;;;;;;2.03;0.70;;;;;;;18.71;69.46;96950.55;127992;1093;47883;-93
2021/07/10 04:49:51;;;;;;;1.35;0.78;;;;;;;18.67;69.53;96951.20;127994;1093;54902;-93
2021/07/10 04:52:22;;;;;;;1.18;0.85;;;;;;;18.67;69.59;96953.11;128052;1093;43448;-93
2021/07/10 04:54:54;;;;;;;1.30;0.73;;;;;;;18.73;69.70;96959.89;128028;1093;45961;-93
2021/07/10 04:57:25;;;;;;;1.53;0.63;;;;;;;18.86;69.80;96958.89;127962;1092;52552;-93
2021/07/10 04:59:57;;;;;;;1.85;0.63;;;;;;;18.98;69.36;96956.28;127965;1093;48605;-93
2021/07/10 05:02:28;;;;;;;2.95;1.15;;;;;;;19.00;69.09;96950.58;127971;1093;41304;-93
2021/07/10 05:05:03;;;;;;;2.95;1.18;;;;;;;19.01;69.19;96954.88;128062;1093;39801;-94
2021/07/10 05:07:34;;;;;;;4.68;1.50;;;;;;;19.00;68.63;96953.27;127918;1092;79158;-94
2021/07/10 05:10:07;;;;;;;2.73;1.50;;;;;;;19.02;68.62;96950.28;127880;1093;62188;-94
2021/07/10 05:12:39;;;;;;;3.13;1.40;;;;;;;19.07;68.77;96952.78;128094;1091;46029;-94
2021/07/10 05:15:12;;;;;;;2.03;0.90;;;;;;;19.27;68.61;96957.39;128099;1092;46121;-94
2021/07/10 05:17:44;;;;;;;1.80;1.30;;;;;;;19.39;68.19;96954.80;127985;1093;44763;-94
2021/07/10 05:20:16;;;;;;;1.88;1.08;;;;;;;19.53;68.13;96960.70;127931;1093;50932;-94
2021/07/10 05:22:48;;;;;;;1.23;1.00;;;;;;;19.72;67.78;96962.20;127998;1093;36848;-94
2021/07/10 05:25:19;;;;;;;2.18;1.13;;;;;;;19.71;67.11;96966.02;127983;1092;43668;-94
2021/07/10 05:27:51;;;;;;;1.40;1.10;;;;;;;19.78;67.14;96967.05;127942;1093;65689;-94
2021/07/10 05:30:23;;;;;;;2.25;0.73;;;;;;;19.65;66.63;96970.00;127943;1093;52900;-94
2021/07/10 05:32:54;;;;;;;1.20;0.73;;;;;;;19.48;66.67;96968.98;128863;1093;46486;-95
2021/07/10 05:35:27;;;;;;;1.73;0.90;;;;;;;19.36;66.99;96971.58;129637;1093;44665;-95
2021/07/10 05:37:59;;;;;;;0.93;0.68;;;;;;;19.34;67.00;96975.72;129192;1093;42970;-95
2021/07/10 05:40:40;;;;;;;1.90;0.60;;;;;;;19.24;66.84;96979.55;127973;1093;35931;-94
2021/07/10 05:43:11;;;;;;;1.08;0.70;;;;;;;19.23;67.27;96972.61;128096;1093;40051;-94
2021/07/10 05:45:43;;;;;;;1.23;0.50;;;;;;;19.23;67.31;96981.45;127954;1093;40010;-94
2021/07/10 05:48:15;;;;;;;1.05;0.63;;;;;;;19.23;67.34;96980.67;128001;1093;55242;-93
2021/07/10 05:50:46;;;;;;;1.20;0.68;;;;;;;19.24;67.23;96979.55;126721;1093;1472288;-95
2021/07/10 05:53:18;;;;;;;1.03;0.70;;;;;;;19.21;67.17;96977.52;127955;1093;50556;-95
2021/07/10 05:55:50;;;;;;;2.13;0.70;;;;;;;19.19;67.42;96977.06;127928;1093;44738;-95
2021/07/10 05:58:21;;;;;;;2.23;0.83;;;;;;;19.24;66.88;96985.72;127867;1093;52785;-95
2021/07/10 06:00:53;;;;;;;1.10;0.50;;;;;;;19.39;67.23;96975.52;128002;1093;39206;-95
2021/07/10 06:03:25;;;;;;;1.88;0.60;;;;;;;19.53;66.91;96971.47;128005;1092;39237;-94
2021/07/10 06:05:56;;;;;;;1.83;0.40;;;;;;;19.73;66.95;96979.92;127997;1093;60557;-95
2021/07/10 06:08:28;;;;;;;1.05;0.53;;;;;;;20.10;66.94;96973.58;127940;1092;47664;-95
2021/07/10 06:11:00;;;;;;;0.95;0.50;;;;;;;20.47;66.42;96979.13;127841;1093;59622;-95
2021/07/10 06:13:32;;;;;;;3.38;0.60;;;;;;;20.81;65.34;96980.64;127829;1093;76831;-94
2021/07/10 06:16:03;;;;;;;1.25;0.68;;;;;;;21.14;65.52;96977.88;127769;1092;93362;-94
2021/07/10 06:18:35;;;;;;;1.18;0.70;;;;;;;21.34;64.29;96984.28;127737;1092;50646;-94
2021/07/10 06:21:07;;;;;;;1.75;0.50;;;;;;;21.54;64.00;96985.29;127918;1091;45776;-94
2021/07/10 06:23:41;;;;;;;0.90;0.60;;;;;;;21.67;62.44;96978.72;128001;1093;37131;-95
2021/07/10 06:26:12;;;;;;;0.70;0.50;;;;;;;21.70;62.00;96982.67;127907;1093;38564;-93
2021/07/10 06:28:47;;;;;;;1.55;0.80;;;;;;;21.77;60.74;96985.56;127756;1093;54030;-94
2021/07/10 06:31:19;;;;;;;1.45;1.00;;;;;;;21.66;60.84;96993.34;127912;1093;41141;-94
2021/07/10 06:33:51;;;;;;;0.83;0.53;;;;;;;21.70;61.64;96994.25;127839;1093;44838;-94
2021/07/10 06:36:22;;;;;;;1.03;0.60;;;;;;;21.86;61.21;96992.41;127781;1093;88026;-95
2021/07/10 06:38:54;;;;;;;1.03;0.60;;;;;;;21.81;60.55;96992.63;127760;1093;64002;-95
2021/07/10 06:41:25;;;;;;;1.70;0.77;;;;;;;21.55;59.88;96993.05;127776;1093;59381;-95
2021/07/10 06:43:58;;;;;;;0.75;0.55;;;;;;;21.28;59.68;96997.22;127811;1093;59154;-93
2021/07/10 06:46:30;;;;;;;0.78;0.60;;;;;;;21.24;60.12;96998.19;127771;1093;51412;-94
2021/07/10 06:49:04;;;;;;;0.93;0.70;;;;;;;21.15;60.30;96990.22;127828;1092;62378;-95
2021/07/10 06:51:36;;;;;;;1.95;0.70;;;;;;;21.31;60.21;96988.45;127877;1092;48605;-93
2021/07/10 06:54:08;;;;;;;0.90;0.60;;;;;;;21.93;60.45;96987.20;127982;1092;35839;-94
2021/07/10 06:56:39;;;;;;;1.85;0.73;;;;;;;22.57;59.36;96985.50;127902;1093;43552;-93
2021/07/10 06:59:11;;;;;;;0.93;0.60;;;;;;;22.75;57.88;96989.44;127916;1093;37887;-93
2021/07/10 07:01:46;;;;;;;1.30;0.50;;;;;;;23.05;57.88;96983.63;127738;1093;57421;-92
2021/07/10 07:04:17;;;;;;;1.30;0.55;;;;;;;23.55;57.36;96982.88;127829;1093;42163;-94
2021/07/10 07:06:49;;;;;;;0.50;0.50;;;;;;;24.23;56.48;96978.89;127871;1093;32835;-92
2021/07/10 07:09:21;;;;;;;1.13;0.30;;;;;;;25.37;55.01;96981.67;128018;1093;30711;-94
2021/07/10 07:11:53;;;;;;;0.40;0.40;;;;;;;25.77;53.95;96983.04;127898;1093;27115;-94
2021/07/10 07:14:25;;;;;;;0.78;0.35;;;;;;;28.33;53.25;96970.83;127849;1092;28402;-93
2021/07/10 07:16:58;;;;;;;0.45;0.40;;;;;;;31.54;52.00;96968.63;127858;1093;29860;-91
2021/07/10 07:19:31;;;;;;;0.73;0.48;;;;;;;34.17;45.15;96972.13;127909;1093;31964;-91
2021/07/10 07:22:02;;;;;;;0.65;0.50;;;;;;;35.63;39.71;96965.99;127890;1093;28487;-93
2021/07/10 07:24:34;;;;;;;0.60;0.33;;;;;;;34.72;39.78;96976.07;127821;1093;30984;-92
2021/07/10 07:27:06;;;;;;;0.73;0.50;;;;;;;35.76;37.30;96974.33;127862;1093;26283;-93
2021/07/10 07:29:37;;;;;;;0.73;0.60;;;;;;;34.77;34.15;96981.09;128006;1091;30237;-92
2021/07/10 07:32:10;;;;;;;0.77;0.40;;;;;;;33.53;36.70;96981.62;127902;1093;37680;-91
2021/07/10 07:34:41;;;;;;;0.75;0.33;;;;;;;33.29;38.08;96977.30;128016;1091;28486;-92
2021/07/10 07:37:13;;;;;;;0.45;0.45;;;;;;;34.19;35.29;96975.23;127990;1093;53480;-91
2021/07/10 07:39:46;;;;;;;0.40;0.40;;;;;;;35.17;35.06;96967.14;127833;1093;34890;-93
2021/07/10 07:42:19;;;;;;;0.70;0.40;;;;;;;35.36;32.68;96977.34;127880;1093;26980;-91
2021/07/10 07:44:50;;;;;;;0.60;0.40;;;;;;;33.98;33.56;96978.43;127888;1093;31714;-92
2021/07/10 07:47:21;;;;;;;0.37;0.33;;;;;;;33.39;35.12;96978.34;127863;1093;27344;-92
2021/07/10 07:49:53;;;;;;;0.48;0.30;;;;;;;33.11;35.26;96982.33;127939;1093;37023;-90
2021/07/10 07:52:25;;;;;;;1.23;0.48;;;;;;;32.71;35.18;96995.84;127841;1093;28057;-91
2021/07/10 07:54:56;;;;;;;1.68;0.60;;;;;;;33.03;34.95;96987.92;127862;1093;38604;-92
2021/07/10 07:57:28;;;;;;;1.35;0.60;;;;;;;31.56;33.85;96993.66;127896;1093;40196;-91
2021/07/10 07:59:59;;;;;;;0.40;0.40;;;;;;;29.66;36.66;96991.58;127905;1093;27130;-91
2021/07/10 08:02:30;;;;;;;0.68;0.50;;;;;;;28.80;38.09;96988.84;127992;1092;29471;-94
2021/07/10 08:05:02;;;;;;;2.25;0.68;;;;;;;28.12;38.97;96987.07;127773;1093;41767;-93
2021/07/10 08:07:33;;;;;;;1.30;0.50;;;;;;;27.61;39.48;96988.75;127883;1093;30077;-92
2021/07/10 08:10:07;;;;;;;1.05;0.55;;;;;;;28.59;40.62;96989.59;127875;1093;35356;-93
2021/07/10 08:12:38;;;;;;;1.40;0.60;;;;;;;28.25;39.24;96989.06;127993;1093;26411;-92
2021/07/10 08:15:14;;;;;;;2.05;0.48;;;;;;;27.45;40.36;96983.59;127926;1093;35433;-92
2021/07/10 08:17:47;;;;;;;2.35;0.85;;;;;;;26.86;40.67;96993.59;127934;1093;33478;-92
2021/07/10 08:20:21;;;;;;;0.90;0.63;;;;;;;26.42;42.22;96993.54;127865;1093;31544;-93
2021/07/10 08:22:54;;;;;;;1.35;0.78;;;;;;;26.43;42.73;96991.60;127909;1093;29684;-93
2021/07/10 08:25:25;;;;;;;1.65;0.45;;;;;;;26.69;43.00;96990.70;127845;1093;43516;-92
2021/07/10 08:27:57;;;;;;;0.68;0.68;;;;;;;27.98;42.81;96990.52;127859;1093;44867;-93
2021/07/10 08:30:29;;;;;;;1.55;0.80;;;;;;;30.77;39.63;96980.98;127897;1092;33239;-93
2021/07/10 08:33:01;;;;;;;0.88;0.63;;;;;;;30.81;37.86;96984.47;127854;1093;40164;-92
2021/07/10 08:35:32;;;;;;;1.03;0.60;;;;;;;29.90;38.03;96984.50;127925;1093;33388;-92
2021/07/10 08:38:04;;;;;;;2.63;0.80;;;;;;;28.55;38.85;96986.06;127942;1091;32001;-94
2021/07/10 08:40:35;;;;;;;0.85;0.80;;;;;;;29.24;39.64;96987.70;127976;1092;53603;-93
2021/07/10 08:43:07;;;;;;;2.88;0.80;;;;;;;29.76;39.91;96985.32;127824;1093;36480;-93
2021/07/10 08:45:39;;;;;;;0.95;0.60;;;;;;;28.68;39.11;96989.20;127946;1093;45638;-94
2021/07/10 08:48:11;;;;;;;0.95;0.70;;;;;;;27.32;39.84;96995.17;127962;1093;33445;-90
2021/07/10 08:50:43;;;;;;;1.78;0.75;;;;;;;26.69;41.51;96988.77;127892;1092;28704;-88
2021/07/10 08:53:14;;;;;;;2.15;1.00;;;;;;;26.22;42.24;96992.91;127928;1093;23284;-92
2021/07/10 08:55:50;;;;;;;0.70;0.70;;;;;;;26.02;43.22;96994.98;127883;1093;30435;-93
2021/07/10 08:58:22;;;;;;;1.10;0.78;;;;;;;25.96;43.25;96999.19;127901;1093;31280;-92
2021/07/10 09:00:53;;;;;;;1.83;0.83;;;;;;;25.28;43.31;96996.64;127904;1093;30633;-92
2021/07/10 09:03:25;;;;;;;1.53;0.93;;;;;;;24.71;44.45;96993.73;127818;1093;59687;-91
2021/07/10 09:05:56;;;;;;;1.13;0.95;;;;;;;24.39;45.61;96984.25;127867;1093;26272;-93
2021/07/10 09:08:29;;;;;;;1.15;1.00;;;;;;;24.20;46.06;96991.20;127917;1092;31913;-94
2021/07/10 09:11:05;;;;;;;2.45;0.98;;;;;;;23.82;47.42;96999.33;127899;1093;27820;-92
2021/07/10 09:13:42;;;;;;;1.00;0.70;;;;;;;24.03;48.89;96993.56;127921;1093;46856;-92
2021/07/10 09:16:18;;;;;;;1.60;0.83;;;;;;;24.57;47.94;96990.77;127912;1093;37508;-94
2021/07/10 09:18:51;;;;;;;1.95;0.88;;;;;;;24.82;48.23;96997.42;127831;1093;42211;-94
2021/07/10 09:24:34;;;;;;;1.30;0.70;;;;;;;24.46;47.69;96993.28;127822;1093;58210;-93
2021/07/10 09:27:05;;;;;;;;;;;;;;;24.32;48.09;96998.43;127508;1093;35724;-94
2021/07/10 09:29:43;;;;;;;1.53;0.80;;;;;;;23.97;48.25;97004.69;127668;1093;32072;-93
2021/07/10 09:32:18;;;;;;;1.23;0.90;;;;;;;23.82;48.73;96996.63;127494;1093;38631;-92
2021/07/10 09:34:52;;;;;;;1.23;0.88;;;;;;;23.74;49.16;97001.09;127562;1093;30727;-91
2021/07/10 09:37:25;;;;;;;1.90;1.00;;;;;;;23.73;49.92;96999.52;127498;1092;43090;-93
2021/07/10 09:40:00;;;;;;;1.78;1.10;;;;;;;24.20;50.53;96993.91;127444;1093;46298;-90
2021/07/10 09:42:36;;;;;;;2.08;1.05;;;;;;;24.71;49.51;96999.16;127493;1093;29867;-92
2021/07/10 09:45:18;;;;;;;1.93;0.85;;;;;;;25.10;49.81;96996.36;127589;1093;26963;-93
2021/07/10 09:47:50;;;;;;;1.40;1.30;;;;;;;25.03;48.09;96998.95;127783;1093;33535;-92
2021/07/10 09:50:26;;;;;;;1.18;0.98;;;;;;;24.62;48.50;96995.11;127788;1093;28488;-92
2021/07/10 09:52:58;;;;;;;1.20;1.10;;;;;;;24.55;49.43;97001.20;127804;1093;43354;-93
2021/07/10 09:55:30;;;;;;;0.97;0.90;;;;;;;24.93;49.70;96994.12;127839;1093;29013;-92
2021/07/10 09:58:02;;;;;;;1.30;1.00;;;;;;;24.91;49.76;96986.31;127915;1093;35954;-91
2021/07/10 10:00:33;;;;;;;1.30;0.90;;;;;;;25.23;48.49;96992.31;127783;1093;25476;-91
2021/07/10 10:03:05;;;;;;;1.18;0.83;;;;;;;25.41;49.24;96987.92;127913;1091;30301;-91
2021/07/10 10:05:41;;;;;;;1.58;1.20;;;;;;;25.37;48.43;96987.09;127955;1093;36062;-92
2021/07/10 10:08:13;;;;;;;1.23;1.10;;;;;;;24.98;48.80;96988.38;127983;1093;47355;-89
2021/07/10 10:10:53;;;;;;;0.90;0.80;;;;;;;24.82;48.00;96985.80;127828;1093;53049;-94
2021/07/10 10:13:24;;;;;;;1.18;0.83;;;;;;;24.54;49.50;96984.15;127884;1093;31684;-93
2021/07/10 10:15:57;;;;;;;0.70;0.70;;;;;;;24.80;49.54;96990.80;127845;1093;63915;-94
2021/07/10 10:18:29;;;;;;;2.77;0.80;;;;;;;25.12;49.40;96994.06;127934;1093;32731;-92
2021/07/10 10:21:01;;;;;;;1.28;0.90;;;;;;;25.36;48.98;96988.25;127818;1093;39546;-93
2021/07/10 10:23:33;;;;;;;0.83;0.80;;;;;;;25.63;48.79;96993.68;127867;1093;37960;-92
2021/07/10 10:26:05;;;;;;;1.07;0.93;;;;;;;25.35;47.61;96994.05;127824;1093;30883;-92
2021/07/10 10:28:38;;;;;;;0.95;0.90;;;;;;;24.75;47.73;97008.13;127862;1093;25721;-92
2021/07/10 10:31:10;;;;;;;1.23;0.90;;;;;;;24.15;48.49;96999.63;127887;1093;50453;-92
2021/07/10 10:33:42;;;;;;;2.75;1.08;;;;;;;23.82;49.87;97000.11;127894;1093;24451;-91
2021/07/10 10:36:14;;;;;;;1.00;0.90;;;;;;;24.07;50.54;97003.34;127911;1093;23986;-90
2021/07/10 10:38:46;;;;;;;1.43;0.75;;;;;;;24.53;50.04;96998.84;127742;1092;165081;-90
2021/07/10 10:41:18;;;;;;;1.50;1.25;;;;;;;24.74;49.73;97003.86;127890;1093;24210;-91
2021/07/10 10:43:55;;;;;;;2.85;1.00;;;;;;;24.85;49.56;97007.55;127795;1093;33310;-95
2021/07/10 10:46:27;;;;;;;1.28;1.18;;;;;;;24.65;48.90;97010.67;127824;1093;28010;-93
2021/07/10 10:48:58;;;;;;;0.93;0.78;;;;;;;24.54;49.90;97005.05;127763;1091;26734;-89
2021/07/10 10:51:33;;;;;;;1.05;0.93;;;;;;;24.85;49.68;97006.77;127991;1092;23100;-90
2021/07/10 10:54:29;;;;;;;1.70;0.88;;;;;;;25.06;49.28;97006.38;127864;1093;27740;-89
2021/07/10 10:57:10;;;;;;;1.25;1.05;;;;;;;24.96;49.17;97009.66;127862;1093;23386;-89
2021/07/10 10:59:43;;;;;;;2.03;1.15;;;;;;;25.07;49.64;97013.38;127941;1093;25358;-90
2021/07/10 11:02:45;;;;;;;0.70;0.70;;;;;;;25.32;49.12;97011.81;127824;1093;24544;-90
2021/07/10 11:05:17;;;;;;;1.00;0.80;;;;;;;25.42;48.93;97008.49;127942;1092;24297;-90
2021/07/10 11:07:48;;;;;;;1.23;0.90;;;;;;;25.57;48.79;97006.77;127817;1093;30207;-88
2021/07/10 11:10:27;;;;;;;1.10;1.00;;;;;;;25.68;48.31;97006.92;127889;1093;24434;-90
2021/07/10 11:13:01;;;;;;;1.90;1.05;;;;;;;25.75;48.36;97009.76;127879;1093;27543;-89
2021/07/10 11:15:46;;;;;;;1.65;1.13;;;;;;;25.61;48.66;97006.81;127887;1093;23472;-89
2021/07/10 11:18:48;;;;;;;1.55;0.90;;;;;;;25.70;47.89;97007.38;127853;1093;25029;-90
2021/07/10 11:21:45;;;;;;;2.15;0.98;;;;;;;25.63;48.03;97002.61;127947;1093;26837;-89
2021/07/10 11:24:26;;;;;;;1.43;1.03;;;;;;;25.71;48.64;96996.14;127827;1092;30351;-88
2021/07/10 11:27:26;;;;;;;0.90;0.80;;;;;;;25.82;47.92;96996.28;127707;1090;26988;-89
2021/07/10 11:30:21;;;;;;;1.10;1.00;;;;;;;25.48;47.60;96989.17;127690;1090;24346;-89
2021/07/10 11:32:53;;;;;;;1.18;0.90;;;;;;;25.40;48.67;96991.80;127882;1091;24029;-87
2021/07/10 11:35:39;;;;;;;1.13;1.00;;;;;;;25.50;48.24;96984.96;127977;1093;26245;-89
2021/07/10 11:38:30;;;;;;;1.17;1.00;;;;;;;25.60;47.90;96997.10;128164;1093;23582;-88
2021/07/10 11:41:03;;;;;;;1.35;1.25;;;;;;;25.80;47.85;97000.53;127962;1093;25368;-89
2021/07/10 11:43:41;;;;;;;1.15;0.93;;;;;;;26.09;48.29;96994.30;127845;1092;26318;-90
2021/07/10 11:46:13;;;;;;;1.35;1.00;;;;;;;26.46;47.77;96985.41;127921;1093;24263;-87
2021/07/10 11:48:44;;;;;;;1.25;1.15;;;;;;;26.70;47.73;96989.55;127857;1093;32396;-90
2021/07/10 11:51:19;;;;;;;3.05;1.40;;;;;;;26.91;46.76;96989.77;127831;1092;26640;-89
2021/07/10 11:53:59;;;;;;;1.75;1.10;;;;;;;26.86;47.11;96979.20;127690;1093;27106;-88